Time;durP1;ratioP1;P1;durP2;ratioP2;P2;SDS_P1;SDS_P2;PMS_P1;PMS_P2;Temp;Humidity;BMP_temperature;BMP_pressure;BME280_temperature;BME280_humidity;BME280_pressure;Samples;Min_cycle;Max_cycle;Signal;HPM_P1;HPM_P2
2021/12/18 00:02:06;;;;;;;8.97;5.40;;;9.10;99.90;;;;;;5005287;28;20435;-75
2021/12/18 00:04:32;;;;;;;8.93;5.80;;;9.10;99.90;;;;;;4990637;28;20117;-75
2021/12/18 00:06:58;;;;;;;9.03;5.90;;;9.00;99.90;;;;;;5008789;28;20101;-75
2021/12/18 00:09:25;;;;;;;9.87;5.47;;;8.90;99.90;;;;;;5010202;28;20069;-72
2021/12/18 00:11:52;;;;;;;9.90;6.07;;;9.10;99.90;;;;;;5010057;28;20018;-72
2021/12/18 00:14:18;;;;;;;9.13;5.30;;;;;;;;;;5009590;28;20026;-72
2021/12/18 00:16:44;;;;;;;8.27;5.33;;;;;;;;;;5009687;28;20132;-72
2021/12/18 00:19:10;;;;;;;7.73;4.93;;;;;;;;;;5009208;28;20109;-72
2021/12/18 00:21:36;;;;;;;9.27;5.70;;;9.00;99.90;;;;;;4992639;28;20089;-72
2021/12/18 00:24:07;;;;;;;8.23;5.37;;;8.90;99.90;;;;;;4993644;28;20049;-73
2021/12/18 00:26:33;;;;;;;10.17;5.73;;;8.50;99.90;;;;;;4994328;28;20435;-73
2021/12/18 00:28:59;;;;;;;8.87;5.13;;;;;;;;;;4993691;28;20097;-73
2021/12/18 00:31:25;;;;;;;7.57;4.70;;;9.00;99.90;;;;;;4994385;28;20034;-73
2021/12/18 00:33:51;;;;;;;7.70;5.00;;;;;;;;;;4993597;28;20109;-73
2021/12/18 00:36:17;;;;;;;8.73;5.30;;;9.00;99.90;;;;;;4993865;28;20105;-72
2021/12/18 00:38:43;;;;;;;8.50;4.50;;;;;;;;;;4987499;28;20428;-73
2021/12/18 00:41:14;;;;;;;6.80;4.57;;;9.00;99.90;;;;;;4990925;28;20018;-73
2021/12/18 00:44:01;;;;;;;7.17;5.50;;;9.10;99.90;;;;;;4993313;28;20030;-73
2021/12/18 00:46:32;;;;;;;9.10;5.27;;;9.10;99.90;;;;;;4993675;28;20030;-73
2021/12/18 00:48:58;;;;;;;11.90;6.57;;;;;;;;;;4993135;28;20023;-73
2021/12/18 00:51:24;;;;;;;10.50;5.97;;;8.90;99.90;;;;;;4995442;28;20418;-73
2021/12/18 00:53:50;;;;;;;9.10;6.50;;;;;;;;;;4992677;28;20047;-73
2021/12/18 00:56:16;;;;;;;9.37;5.80;;;;;;;;;;4993392;28;20058;-73
2021/12/18 00:58:42;;;;;;;8.37;5.30;;;;;;;;;;4992517;28;20027;-73
2021/12/18 01:01:10;;;;;;;6.87;4.93;;;9.00;99.90;;;;;;4992875;28;20464;-73
2021/12/18 01:03:39;;;;;;;9.97;5.27;;;9.00;99.90;;;;;;4992850;28;20041;-73
2021/12/18 01:06:04;;;;;;;8.13;4.67;;;;;;;;;;4991357;28;20030;-73
2021/12/18 01:08:30;;;;;;;7.67;5.07;;;8.90;99.90;;;;;;4992510;28;20041;-73
2021/12/18 01:11:56;;;;;;;6.77;4.13;;;9.10;99.90;;;;;;4992781;28;20034;-73
2021/12/18 01:16:47;;;;;;;7.73;5.10;;;8.90;99.90;;;;;;4993098;28;20128;-73
2021/12/18 01:24:41;;;;;;;7.97;4.88;;;;;;;;;;4989615;28;20116;-73
2021/12/18 01:27:07;;;;;;;6.80;4.63;;;9.00;99.90;;;;;;4992075;28;20476;-73
2021/12/18 01:29:33;;;;;;;7.87;4.83;;;;;;;;;;4993003;28;20394;-73
2021/12/18 01:31:59;;;;;;;8.73;4.60;;;;;;;;;;4992378;28;20031;-73
2021/12/18 01:34:25;;;;;;;6.57;4.50;;;;;;;;;;4992878;28;20034;-73
2021/12/18 01:36:50;;;;;;;8.37;5.53;;;9.10;99.90;;;;;;5012103;28;20026;-73
2021/12/18 01:39:16;;;;;;;7.07;4.10;;;9.00;99.90;;;;;;5005541;28;20030;-73
2021/12/18 01:42:08;;;;;;;5.87;3.97;;;8.90;99.90;;;;;;4992340;28;20034;-73
2021/12/18 01:45:00;;;;;;;6.03;4.10;;;8.80;99.90;;;;;;4992566;28;20030;-73
2021/12/18 01:52:38;;;;;;;11.33;5.83;;;8.90;99.90;;;;;;5012177;28;20121;-73
2021/12/18 01:55:04;;;;;;;10.07;5.70;;;8.80;99.90;;;;;;5011460;28;20033;-73
2021/12/18 01:57:31;;;;;;;7.53;5.03;;;;;;;;;;5012638;28;20280;-73
2021/12/18 01:59:57;;;;;;;8.00;5.20;;;;;;;;;;5006020;28;20084;-73
2021/12/18 02:02:24;;;;;;;10.67;5.33;;;;;;;;;;4992471;28;20042;-73
2021/12/18 02:04:50;;;;;;;10.07;5.93;;;;;;;;;;4992264;28;20042;-73
2021/12/18 02:07:16;;;;;;;8.27;5.30;;;8.80;99.90;;;;;;4992365;28;20387;-73
2021/12/18 02:12:15;;;;;;;9.13;5.70;;;9.00;99.90;;;;;;4992049;28;20038;-73
2021/12/18 02:20:37;;;;;;;10.97;6.17;;;8.90;99.90;;;;;;4992985;28;20498;-73
2021/12/18 02:23:04;;;;;;;12.33;8.33;;;8.90;99.90;;;;;;4991818;28;20028;-73
2021/12/18 02:25:32;;;;;;;14.30;9.57;;;9.10;99.90;;;;;;4991861;28;20034;-73
2021/12/18 02:27:58;;;;;;;17.83;10.10;;;9.00;99.90;;;;;;4991817;28;20060;-73
2021/12/18 02:30:24;;;;;;;21.20;10.53;;;9.00;99.90;;;;;;5013025;28;20499;-73
2021/12/18 02:32:50;;;;;;;17.53;11.67;;;;;;;;;;5011419;28;20498;-73
2021/12/18 02:35:31;;;;;;;14.97;9.33;;;9.10;99.90;;;;;;5011672;28;20386;-73
2021/12/18 02:38:11;;;;;;;14.97;8.30;;;8.90;99.90;;;;;;5011136;28;20053;-73
2021/12/18 02:43:15;;;;;;;16.23;9.63;;;8.90;99.90;;;;;;5011348;28;20104;-73
2021/12/18 02:45:41;;;;;;;14.87;8.13;;;8.90;99.90;;;;;;5000840;28;20487;-73
2021/12/18 02:48:07;;;;;;;13.43;7.97;;;;;;;;;;4991415;28;20545;-73
2021/12/18 02:50:32;;;;;;;14.90;8.80;;;9.40;99.90;;;;;;4991163;28;20105;-73
2021/12/18 02:52:59;;;;;;;18.73;9.77;;;8.60;99.90;;;;;;4989147;28;20026;-73
2021/12/18 02:55:24;;;;;;;10.43;6.63;;;8.80;99.90;;;;;;4990084;28;20469;-73
2021/12/18 02:57:50;;;;;;;14.93;7.70;;;;;;;;;;4989902;28;20023;-73
2021/12/18 03:00:16;;;;;;;11.20;7.07;;;9.00;99.90;;;;;;4990554;28;20030;-73
2021/12/18 03:02:44;;;;;;;10.63;6.43;;;8.90;99.90;;;;;;5000746;28;20036;-73
2021/12/18 03:05:18;;;;;;;17.73;7.70;;;8.80;99.90;;;;;;5007318;28;20030;-73
2021/12/18 03:07:44;;;;;;;11.82;7.03;;;9.00;99.90;;;;;;4991161;28;20116;-72
2021/12/18 03:25:57;;;;;;;14.47;7.70;;;;;;;;;;4990879;28;20038;-73
2021/12/18 03:28:23;;;;;;;11.53;7.47;;;8.80;99.90;;;;;;4990993;28;20022;-73
2021/12/18 03:30:48;;;;;;;12.20;7.50;;;8.80;99.90;;;;;;4991143;28;20022;-73
2021/12/18 03:33:14;;;;;;;14.37;7.90;;;;;;;;;;4990635;28;20391;-73
2021/12/18 03:35:40;;;;;;;13.97;7.47;;;8.90;99.90;;;;;;4991053;28;20039;-73
2021/12/18 03:38:06;;;;;;;13.90;7.53;;;;;;;;;;5009190;28;20064;-73
2021/12/18 03:40:32;;;;;;;13.40;8.57;;;;;;;;;;5010481;28;20479;-73
2021/12/18 03:42:57;;;;;;;14.87;7.87;;;8.80;99.90;;;;;;5010148;28;20029;-73
2021/12/18 03:45:23;;;;;;;13.17;8.13;;;8.70;99.90;;;;;;5025717;28;20394;-72
2021/12/18 03:47:50;;;;;;;13.30;7.57;;;8.90;99.90;;;;;;5010549;28;20021;-73
2021/12/18 03:50:17;;;;;;;12.70;7.43;;;8.80;99.90;;;;;;5010434;28;20426;-73
2021/12/18 03:52:43;;;;;;;11.57;6.93;;;8.70;99.90;;;;;;5009371;28;20446;-73
2021/12/18 03:55:09;;;;;;;15.83;8.37;;;;;;;;;;4990389;28;20105;-73
2021/12/18 03:57:34;;;;;;;13.37;7.93;;;8.70;99.90;;;;;;4990583;28;20030;-73
2021/12/18 04:00:00;;;;;;;14.07;6.33;;;;;;;;;;4990337;28;20073;-73
2021/12/18 04:02:26;;;;;;;10.20;5.77;;;8.70;99.90;;;;;;5005814;28;20486;-73
2021/12/18 04:04:51;;;;;;;13.47;6.27;;;8.60;99.90;;;;;;4990394;28;20486;-73
2021/12/18 04:07:17;;;;;;;10.73;5.67;;;8.70;99.90;;;;;;4990172;28;20138;-73
2021/12/18 04:09:43;;;;;;;12.43;6.27;;;8.50;99.90;;;;;;5006171;28;20037;-73
2021/12/18 04:12:09;;;;;;;12.67;7.00;;;8.50;99.90;;;;;;5009981;28;20475;-73
2021/12/18 04:14:34;;;;;;;9.37;5.57;;;8.50;99.90;;;;;;5010346;28;20092;-73
2021/12/18 04:17:01;;;;;;;10.70;6.40;;;;;;;;;;5009593;28;20569;-73
2021/12/18 04:19:27;;;;;;;10.87;5.50;;;;;;;;;;5010266;28;20022;-73
2021/12/18 04:21:53;;;;;;;8.67;5.23;;;8.50;99.90;;;;;;5000324;28;20069;-73
2021/12/18 04:24:19;;;;;;;13.63;6.60;;;;;;;;;;4990243;28;20097;-73
2021/12/18 04:26:44;;;;;;;11.93;6.13;;;8.50;99.90;;;;;;4990691;28;20026;-73
2021/12/18 04:29:10;;;;;;;12.70;6.67;;;8.50;99.90;;;;;;4990247;28;20503;-73
2021/12/18 04:31:38;;;;;;;14.97;7.60;;;8.40;99.90;;;;;;4990490;28;20030;-73
2021/12/18 04:34:05;;;;;;;12.13;6.90;;;8.50;99.90;;;;;;4989615;28;20109;-73
2021/12/18 04:36:31;;;;;;;12.87;6.90;;;;;;;;;;4994662;28;20025;-73
2021/12/18 04:38:57;;;;;;;13.53;7.50;;;8.40;99.90;;;;;;5009847;28;20034;-73
2021/12/18 04:41:35;;;;;;;14.40;7.23;;;;;;;;;;5009871;28;20058;-73
2021/12/18 04:44:01;;;;;;;12.77;6.57;;;8.20;99.90;;;;;;5024807;28;20483;-73
2021/12/18 04:46:26;;;;;;;11.50;6.60;;;8.50;99.90;;;;;;5007616;28;20142;-73
2021/12/18 04:48:52;;;;;;;11.37;6.13;;;8.50;99.90;;;;;;5000447;28;20037;-73
2021/12/18 04:51:18;;;;;;;13.90;6.80;;;;;;;;;;5009759;28;20034;-73
2021/12/18 04:53:43;;;;;;;13.33;6.23;;;8.40;99.90;;;;;;5009841;28;20030;-73
2021/12/18 04:56:09;;;;;;;13.27;6.40;;;;;;;;;;5005589;28;20038;-73
2021/12/18 04:58:35;;;;;;;10.87;6.07;;;8.50;99.90;;;;;;4990334;28;20037;-73
2021/12/18 05:01:01;;;;;;;12.37;5.57;;;8.60;99.90;;;;;;4988663;28;20029;-73
2021/12/18 05:03:26;;;;;;;12.23;6.87;;;8.50;99.90;;;;;;4989777;28;20038;-73
2021/12/18 05:05:52;;;;;;;12.80;6.70;;;8.40;99.90;;;;;;4989903;28;20038;-73
2021/12/18 05:08:18;;;;;;;10.27;5.70;;;8.50;99.90;;;;;;4990198;28;20417;-73
2021/12/18 05:10:43;;;;;;;19.23;7.50;;;8.50;99.90;;;;;;4992808;28;20499;-73
2021/12/18 05:13:09;;;;;;;15.77;7.43;;;8.60;99.90;;;;;;4993317;28;20045;-73
2021/12/18 05:15:34;;;;;;;12.90;6.37;;;9.00;99.90;;;;;;4992208;28;20061;-73
2021/12/18 05:18:00;;;;;;;10.40;5.93;;;8.60;99.90;;;;;;4995434;28;20097;-73
2021/12/18 05:20:26;;;;;;;11.73;5.93;;;8.60;99.90;;;;;;5012948;28;20372;-73
2021/12/18 05:22:51;;;;;;;9.37;5.57;;;8.50;99.90;;;;;;5012740;28;20050;-73
2021/12/18 05:25:17;;;;;;;9.63;5.00;;;;;;;;;;5012880;28;20121;-74
2021/12/18 05:27:43;;;;;;;11.33;4.97;;;8.50;99.90;;;;;;5012885;28;20029;-73
2021/12/18 05:30:10;;;;;;;10.27;5.40;;;8.60;99.90;;;;;;5012542;28;20040;-73
2021/12/18 05:32:36;;;;;;;11.73;6.00;;;;;;;;;;5010966;28;20022;-73
2021/12/18 05:35:03;;;;;;;10.87;5.47;;;8.30;99.90;;;;;;5012389;28;20926;-73
2021/12/18 05:37:45;;;;;;;11.13;4.77;;;8.50;99.90;;;;;;5012702;28;20038;-73
2021/12/18 05:40:16;;;;;;;9.20;5.03;;;8.60;99.90;;;;;;5011183;28;20430;-74
2021/12/18 05:42:42;;;;;;;8.40;4.20;;;8.50;99.90;;;;;;5012239;28;20060;-73
2021/12/18 05:45:08;;;;;;;7.17;3.67;;;8.40;99.90;;;;;;5012314;28;20443;-73
2021/12/18 05:47:34;;;;;;;9.57;3.50;;;8.40;99.90;;;;;;5027197;28;20025;-73
2021/12/18 05:50:00;;;;;;;10.03;3.90;;;;;;;;;;5012109;28;20045;-73
2021/12/18 05:52:26;;;;;;;6.63;2.80;;;8.40;99.90;;;;;;5012608;28;20026;-73
2021/12/18 05:54:52;;;;;;;8.17;3.40;;;;;;;;;;5010891;28;20042;-73
2021/12/18 05:57:17;;;;;;;6.80;3.57;;;8.40;99.90;;;;;;4992764;28;20027;-73
2021/12/18 05:59:44;;;;;;;6.43;3.23;;;7.40;99.90;;;;;;4991393;28;20034;-73
2021/12/18 06:02:09;;;;;;;7.80;3.30;;;8.20;99.90;;;;;;4991860;28;20508;-74
2021/12/18 06:04:35;;;;;;;9.20;4.57;;;;;;;;;;4992658;28;20073;-74
2021/12/18 06:07:04;;;;;;;5.37;2.77;;;8.10;99.90;;;;;;4992243;28;20030;-73
2021/12/18 06:09:31;;;;;;;7.00;3.47;;;8.20;99.90;;;;;;4992608;28;20034;-73
2021/12/18 06:12:00;;;;;;;7.87;2.87;;;8.50;99.90;;;;;;5011582;28;20116;-73
2021/12/18 06:14:27;;;;;;;6.53;3.07;;;8.20;99.90;;;;;;5012066;28;20390;-73
2021/12/18 06:16:52;;;;;;;5.77;2.83;;;8.40;99.90;;;;;;5011053;28;20057;-73
2021/12/18 06:19:18;;;;;;;8.57;3.27;;;8.30;99.90;;;;;;5011958;28;20030;-73
2021/12/18 06:21:44;;;;;;;4.80;2.50;;;;;;;;;;5022207;28;20076;-73
2021/12/18 06:24:09;;;;;;;6.30;2.83;;;8.20;99.90;;;;;;4991148;28;20156;-73
2021/12/18 06:26:35;;;;;;;5.03;2.00;;;;;;;;;;4992767;28;20026;-73
2021/12/18 06:29:01;;;;;;;7.33;2.90;;;7.90;99.90;;;;;;5026354;28;20022;-73
2021/12/18 06:31:27;;;;;;;6.40;2.63;;;8.20;99.90;;;;;;5011417;28;20378;-73
2021/12/18 06:33:52;;;;;;;4.07;1.97;;;8.20;99.90;;;;;;5004391;28;20085;-73
2021/12/18 06:36:18;;;;;;;7.53;2.10;;;8.20;99.90;;;;;;5006598;28;20022;-73
2021/12/18 06:38:44;;;;;;;6.27;2.67;;;;;;;;;;4991719;28;20065;-72
2021/12/18 06:41:09;;;;;;;6.13;2.57;;;8.00;99.90;;;;;;4991795;28;20034;-73
2021/12/18 06:43:35;;;;;;;4.40;2.00;;;;;;;;;;4991497;28;20057;-73
2021/12/18 06:46:00;;;;;;;5.43;1.77;;;8.00;99.90;;;;;;4989369;28;20472;-72
2021/12/18 06:48:26;;;;;;;5.27;1.87;;;8.00;99.90;;;;;;4991666;28;20034;-73
2021/12/18 06:50:52;;;;;;;3.67;1.57;;;8.00;99.90;;;;;;4991215;28;20034;-73
2021/12/18 06:53:18;;;;;;;4.43;2.07;;;8.00;99.90;;;;;;4991371;28;20031;-74
2021/12/18 06:55:43;;;;;;;4.50;1.40;;;7.80;99.90;;;;;;4991609;28;20030;-73
2021/12/18 06:58:09;;;;;;;2.83;1.27;;;7.80;99.90;;;;;;5004182;28;20075;-73
2021/12/18 07:00:35;;;;;;;4.57;1.40;;;;;;;;;;5010419;28;20482;-74
2021/12/18 07:03:00;;;;;;;4.73;1.40;;;7.90;99.90;;;;;;5025782;28;20018;-73
2021/12/18 07:05:26;;;;;;;3.63;1.40;;;7.70;99.90;;;;;;5011222;28;20050;-73
2021/12/18 07:07:52;;;;;;;4.33;1.73;;;7.80;99.90;;;;;;5025962;28;20030;-73
2021/12/18 07:10:18;;;;;;;3.03;1.77;;;7.70;99.90;;;;;;5004812;28;20038;-73
2021/12/18 07:12:44;;;;;;;2.10;1.10;;;7.50;99.90;;;;;;4991527;28;20023;-73
2021/12/18 07:15:11;;;;;;;5.37;1.70;;;7.70;99.90;;;;;;5005566;28;20030;-73
2021/12/18 07:17:37;;;;;;;2.73;1.17;;;7.70;99.90;;;;;;4991251;28;20137;-72
2021/12/18 07:20:05;;;;;;;2.17;1.30;;;7.60;99.90;;;;;;4990893;28;20058;-73
2021/12/18 07:22:31;;;;;;;3.37;1.67;;;;;;;;;;4991439;28;20042;-73
2021/12/18 07:24:57;;;;;;;2.97;1.27;;;;;;;;;;4993098;28;20074;-72
2021/12/18 07:27:23;;;;;;;3.70;1.30;;;7.50;99.90;;;;;;5010617;28;20084;-73
2021/12/18 07:29:48;;;;;;;3.03;1.50;;;;;;;;;;5025567;28;20160;-72
2021/12/18 07:32:14;;;;;;;3.00;1.13;;;7.40;99.90;;;;;;5009731;28;20026;-72
2021/12/18 07:34:39;;;;;;;2.10;0.97;;;7.50;99.90;;;;;;5010699;28;20056;-73
2021/12/18 07:37:05;;;;;;;2.90;1.00;;;7.30;99.90;;;;;;5010317;28;20402;-72
2021/12/18 07:39:31;;;;;;;3.30;1.30;;;;;;;;;;5010735;28;20034;-72
2021/12/18 07:41:57;;;;;;;3.10;1.30;;;;;;;;;;4990772;28;20080;-73
2021/12/18 07:44:22;;;;;;;2.63;1.00;;;7.20;99.90;;;;;;5005434;28;20066;-73
2021/12/18 07:46:48;;;;;;;1.60;0.70;;;;;;;;;;4990920;28;20026;-73
2021/12/18 07:49:14;;;;;;;2.27;1.10;;;7.20;99.90;;;;;;5005566;28;20497;-72
2021/12/18 07:51:40;;;;;;;3.73;1.03;;;;;;;;;;5021947;28;20022;-72
2021/12/18 07:54:06;;;;;;;5.70;1.03;;;7.20;99.90;;;;;;5010057;28;20506;-73
2021/12/18 07:56:33;;;;;;;2.60;1.10;;;7.40;99.90;;;;;;5010400;28;20041;-73
2021/12/18 07:58:59;;;;;;;2.00;1.00;;;;;;;;;;5009493;28;20037;-73
2021/12/18 08:01:25;;;;;;;2.07;0.80;;;7.40;99.90;;;;;;5025617;28;20382;-73
2021/12/18 08:03:51;;;;;;;2.40;1.10;;;;;;;;;;5009936;28;20045;-72
2021/12/18 08:06:19;;;;;;;3.07;1.23;;;7.30;99.90;;;;;;5009872;28;20033;-73
2021/12/18 08:08:44;;;;;;;2.60;0.90;;;7.40;99.90;;;;;;5010369;28;20037;-72
2021/12/18 08:11:10;;;;;;;2.50;0.93;;;;;;;;;;5009736;28;20026;-73
2021/12/18 08:13:36;;;;;;;2.23;1.07;;;7.30;99.90;;;;;;5009974;28;20395;-72
2021/12/18 08:16:02;;;;;;;3.17;1.20;;;;;;;;;;5009743;28;20457;-71
2021/12/18 08:18:27;;;;;;;2.30;0.83;;;7.30;99.90;;;;;;5010511;28;20541;-71
2021/12/18 08:20:52;;;;;;;2.07;0.70;;;7.30;99.90;;;;;;5000809;28;20038;-71
2021/12/18 08:23:18;;;;;;;3.57;1.03;;;;;;;;;;4990219;28;20057;-71
2021/12/18 08:25:44;;;;;;;1.80;0.80;;;;;;;;;;4990542;28;20117;-70
2021/12/18 08:28:10;;;;;;;1.60;0.70;;;;;;;;;;4989728;28;20034;-72
2021/12/18 08:30:38;;;;;;;2.53;1.00;;;7.20;99.90;;;;;;4990615;28;20026;-71
2021/12/18 08:33:04;;;;;;;1.60;0.83;;;7.40;99.90;;;;;;5005438;28;20472;-71
2021/12/18 08:35:31;;;;;;;2.73;1.00;;;7.40;99.90;;;;;;4996490;28;20038;-71
2021/12/18 08:37:58;;;;;;;1.83;0.70;;;7.20;99.90;;;;;;5009755;28;20038;-71
2021/12/18 08:40:25;;;;;;;1.87;0.80;;;7.40;99.90;;;;;;5003711;28;20038;-71
2021/12/18 08:42:51;;;;;;;3.07;0.97;;;7.40;99.90;;;;;;4989240;28;20030;-71
2021/12/18 08:45:17;;;;;;;2.10;1.00;;;7.50;99.90;;;;;;4993740;28;20395;-71
2021/12/18 08:47:43;;;;;;;2.60;0.90;;;7.50;99.90;;;;;;4993835;28;20019;-71
2021/12/18 08:50:10;;;;;;;4.20;1.17;;;7.40;99.90;;;;;;4993516;28;20035;-71
2021/12/18 08:52:36;;;;;;;2.97;0.90;;;7.50;99.90;;;;;;4997219;28;20018;-71
2021/12/18 08:55:03;;;;;;;4.67;1.40;;;7.30;99.90;;;;;;4991416;28;20097;-71
2021/12/18 08:57:29;;;;;;;1.60;0.80;;;7.50;99.90;;;;;;4993498;28;20030;-71
2021/12/18 08:59:55;;;;;;;2.10;0.90;;;7.50;99.90;;;;;;4992161;28;20030;-71
2021/12/18 09:02:20;;;;;;;3.50;0.83;;;7.50;99.90;;;;;;4993392;28;20109;-71
2021/12/18 09:04:47;;;;;;;2.50;1.03;;;7.60;99.90;;;;;;4992975;28;20065;-71
2021/12/18 09:07:12;;;;;;;1.63;0.80;;;7.70;99.90;;;;;;5000669;28;20122;-71
2021/12/18 09:09:39;;;;;;;1.00;0.40;;;7.70;99.90;;;;;;4992777;28;20058;-71
2021/12/18 09:12:05;;;;;;;1.27;0.30;;;;;;;;;;4993350;28;20022;-71
2021/12/18 09:14:31;;;;;;;1.10;0.40;;;;;;;;;;4993686;28;20030;-71
2021/12/18 09:16:58;;;;;;;1.13;0.43;;;7.80;99.90;;;;;;5007763;28;20412;-72
2021/12/18 09:19:24;;;;;;;1.33;0.50;;;;;;;;;;4992856;28;20034;-71
2021/12/18 09:21:50;;;;;;;0.67;0.27;;;;;;;;;;4993335;28;20029;-71
2021/12/18 09:24:16;;;;;;;0.87;0.40;;;;;;;;;;4992654;28;20046;-71
2021/12/18 09:26:42;;;;;;;0.70;0.30;;;;;;;;;;4993409;28;20207;-70
2021/12/18 09:29:08;;;;;;;1.93;0.47;;;;;;;;;;4993073;28;20077;-71
2021/12/18 09:31:33;;;;;;;0.30;0.20;;;7.50;99.90;;;;;;4993436;28;20022;-71
2021/12/18 09:33:59;;;;;;;0.50;0.40;;;;;;;;;;4992836;28;20022;-71
2021/12/18 09:36:25;;;;;;;0.60;0.33;;;7.70;99.90;;;;;;5008348;28;20081;-71
2021/12/18 09:38:50;;;;;;;0.57;0.33;;;7.50;99.90;;;;;;4992225;28;20027;-71
2021/12/18 09:41:16;;;;;;;0.67;0.40;;;7.70;99.90;;;;;;4993156;28;20030;-71
2021/12/18 09:43:42;;;;;;;0.40;0.30;;;7.80;99.90;;;;;;4993104;28;20408;-71
2021/12/18 09:46:11;;;;;;;0.73;0.47;;;7.60;99.90;;;;;;5009003;28;20077;-71
2021/12/18 09:48:38;;;;;;;0.60;0.30;;;7.80;99.90;;;;;;5012324;28;20040;-70
2021/12/18 09:51:08;;;;;;;0.40;0.20;;;7.80;99.90;;;;;;5012207;28;20428;-71
2021/12/18 09:53:35;;;;;;;1.00;0.53;;;7.70;99.90;;;;;;5012052;28;20502;-71
2021/12/18 09:56:02;;;;;;;0.50;0.30;;;7.80;99.90;;;;;;5011358;28;20030;-70
2021/12/18 09:58:28;;;;;;;1.33;0.60;;;;;;;;;;5012419;28;20022;-71
2021/12/18 10:00:53;;;;;;;0.67;0.37;;;7.80;99.90;;;;;;4992073;28;20500;-71
2021/12/18 10:03:19;;;;;;;0.70;0.40;;;7.70;99.90;;;;;;4992575;28;20031;-71
2021/12/18 10:05:46;;;;;;;0.50;0.30;;;7.70;99.90;;;;;;4992448;28;20038;-70
2021/12/18 10:08:17;;;;;;;1.27;0.50;;;7.70;99.90;;;;;;5003804;28;20030;-70
2021/12/18 10:11:09;;;;;;;0.70;0.53;;;7.70;99.90;;;;;;5012007;28;20038;-71
2021/12/18 10:13:57;;;;;;;0.63;0.40;;;7.80;99.90;;;;;;4992806;28;20030;-67
2021/12/18 10:16:24;;;;;;;0.67;0.40;;;7.70;99.90;;;;;;4992187;28;20046;-70
2021/12/18 10:18:50;;;;;;;0.83;0.50;;;;;;;;;;4992251;28;20046;-71
2021/12/18 10:21:21;;;;;;;1.17;0.60;;;7.70;99.90;;;;;;4992361;28;20025;-71
2021/12/18 10:23:48;;;;;;;1.63;0.80;;;7.60;99.90;;;;;;5003641;28;20030;-71
2021/12/18 10:26:37;;;;;;;1.27;0.77;;;7.70;99.90;;;;;;4992071;28;20030;-71
2021/12/18 10:29:23;;;;;;;1.17;0.80;;;7.40;99.90;;;;;;4991774;28;20014;-71
2021/12/18 10:31:49;;;;;;;1.10;0.57;;;7.60;99.90;;;;;;4992193;28;20546;-71
2021/12/18 10:34:24;;;;;;;0.57;0.33;;;7.70;99.90;;;;;;4992096;28;20057;-71
2021/12/18 10:37:08;;;;;;;1.07;0.67;;;7.60;99.90;;;;;;4991627;28;20034;-71
2021/12/18 10:39:35;;;;;;;1.92;0.52;;;7.70;99.90;;;;;;5007244;28;20037;-73
2021/12/18 10:42:24;;;;;;;0.93;0.47;;;7.70;99.90;;;;;;4991334;28;20033;-71
2021/12/18 10:44:55;;;;;;;0.87;0.30;;;7.70;99.90;;;;;;4991921;28;20483;-71
2021/12/18 10:47:21;;;;;;;1.70;0.63;;;;;;;;;;4991724;28;20058;-71
2021/12/18 10:49:46;;;;;;;1.17;0.63;;;7.80;99.90;;;;;;4991506;28;20057;-71
2021/12/18 10:52:12;;;;;;;1.30;0.60;;;7.80;99.90;;;;;;4990546;28;20030;-71
2021/12/18 10:54:37;;;;;;;1.00;0.50;;;7.80;99.90;;;;;;4993170;28;20027;-71
2021/12/18 10:57:03;;;;;;;1.00;0.50;;;7.80;99.90;;;;;;5005886;28;20026;-71
2021/12/18 10:59:36;;;;;;;1.40;0.80;;;7.80;99.90;;;;;;4990169;28;20022;-71
2021/12/18 11:02:05;;;;;;;1.40;0.73;;;7.90;99.90;;;;;;4990181;28;20022;-71
2021/12/18 11:04:38;;;;;;;1.00;0.53;;;7.90;99.90;;;;;;4991133;28;20030;-71
2021/12/18 11:07:33;;;;;;;1.27;0.60;;;7.60;99.90;;;;;;4989565;28;20491;-71
2021/12/18 11:10:28;;;;;;;;;;;8.20;99.90;;;;;;4991331;28;20105;-72
2021/12/18 11:15:59;;;;;;;1.70;0.97;;;7.80;99.90;;;;;;4999191;28;19965;-71
2021/12/18 11:18:25;;;;;;;1.47;0.83;;;7.70;99.90;;;;;;4995928;28;20038;-71
2021/12/18 11:20:52;;;;;;;2.77;1.40;;;7.60;99.90;;;;;;4988130;28;20034;-71
2021/12/18 11:23:36;;;;;;;2.33;1.47;;;7.60;99.90;;;;;;4990582;28;20066;-72
2021/12/18 11:26:02;;;;;;;2.65;1.20;;;7.60;99.90;;;;;;4996105;28;20049;-72
2021/12/18 11:28:30;;;;;;;2.47;0.90;;;7.50;99.90;;;;;;5008584;28;20395;-72
2021/12/18 11:30:56;;;;;;;1.43;0.70;;;7.70;99.90;;;;;;5007595;28;20030;-70
2021/12/18 11:33:22;;;;;;;1.17;0.80;;;7.70;99.90;;;;;;5007793;28;20038;-70
2021/12/18 11:35:48;;;;;;;1.80;1.00;;;7.70;99.90;;;;;;5005452;28;20034;-72
2021/12/18 11:38:15;;;;;;;1.10;0.70;;;7.70;99.90;;;;;;4991130;28;20176;-72
2021/12/18 11:40:41;;;;;;;1.00;0.60;;;7.90;99.90;;;;;;5005630;28;20038;-71
2021/12/18 11:43:08;;;;;;;1.40;0.77;;;7.90;99.90;;;;;;5007436;28;20017;-72
2021/12/18 11:45:36;;;;;;;1.43;0.90;;;8.00;99.90;;;;;;5007419;28;20076;-72
2021/12/18 11:48:04;;;;;;;1.77;1.10;;;8.10;99.90;;;;;;4990439;28;20026;-71
2021/12/18 11:50:38;;;;;;;2.07;1.07;;;7.90;99.90;;;;;;4990511;28;20045;-72
2021/12/18 11:53:04;;;;;;;1.48;0.95;;;;;;;;;;4990382;28;20036;-72
2021/12/18 11:55:33;;;;;;;2.13;1.27;;;7.90;99.90;;;;;;4990801;28;20105;-72
2021/12/18 11:58:02;;;;;;;1.77;1.00;;;7.60;99.90;;;;;;4997694;28;20049;-71
2021/12/18 12:00:50;;;;;;;2.17;1.07;;;7.80;99.90;;;;;;5010304;28;20364;-71
2021/12/18 12:03:33;;;;;;;2.13;1.40;;;8.00;99.90;;;;;;5010045;28;20065;-71
2021/12/18 12:06:02;;;;;;;1.65;1.02;;;7.90;99.90;;;;;;5009940;28;20037;-71
2021/12/18 12:08:32;;;;;;;1.73;0.90;;;8.00;99.90;;;;;;5025410;28;20562;-72
2021/12/18 12:11:24;;;;;;;1.70;1.10;;;8.10;99.90;;;;;;5000100;28;20023;-71
2021/12/18 12:13:57;;;;;;;2.40;0.77;;;8.10;99.90;;;;;;4988683;28;20475;-71
2021/12/18 12:16:46;;;;;;;0.90;0.50;;;8.10;99.90;;;;;;4990016;28;20058;-71
2021/12/18 12:19:39;;;;;;;1.00;0.50;;;8.00;99.90;;;;;;4971979;28;20038;-71
2021/12/18 12:22:08;;;;;;;2.40;0.60;;;8.10;99.90;;;;;;4993963;28;20033;-71
2021/12/18 12:24:55;;;;;;;1.27;0.60;;;8.20;99.90;;;;;;4994314;28;20046;-71
2021/12/18 12:27:30;;;;;;;1.00;0.50;;;8.10;99.90;;;;;;5012113;28;20029;-71
2021/12/18 12:29:57;;;;;;;0.80;0.57;;;8.30;99.90;;;;;;5013768;28;20322;-71
2021/12/18 12:32:25;;;;;;;1.53;0.60;;;8.10;99.90;;;;;;5013667;28;20097;-71
2021/12/18 12:35:07;;;;;;;0.87;0.70;;;8.20;99.90;;;;;;4992670;28;20188;-71
2021/12/18 12:37:36;;;;;;;0.80;0.50;;;8.10;99.90;;;;;;4992163;28;20039;-71
2021/12/18 12:40:07;;;;;;;1.10;0.70;;;8.20;99.90;;;;;;4993854;28;20234;-71
2021/12/18 12:42:33;;;;;;;1.43;0.90;;;;;;;;;;4974821;28;20565;-71
2021/12/18 12:45:04;;;;;;;1.80;1.03;;;;;;;;;;4973994;28;20038;-71
2021/12/18 12:47:31;;;;;;;2.00;0.80;;;8.10;99.90;;;;;;4972972;28;20027;-71
2021/12/18 12:50:11;;;;;;;3.30;2.00;;;7.80;99.90;;;;;;4977685;28;20425;-70
2021/12/18 12:52:59;;;;;;;1.83;1.23;;;8.30;99.90;;;;;;4991077;28;20378;-70
2021/12/18 12:55:37;;;;;;;1.80;0.80;;;8.40;99.90;;;;;;4992757;28;20049;-71
2021/12/18 12:58:03;;;;;;;2.77;0.97;;;7.30;99.90;;;;;;4993822;28;20026;-71
2021/12/18 13:00:28;;;;;;;2.90;1.10;;;8.10;99.90;;;;;;5008925;28;20038;-71
2021/12/18 13:02:57;;;;;;;1.70;1.10;;;8.50;99.90;;;;;;4990953;28;20030;-72
2021/12/18 13:05:26;;;;;;;2.30;1.27;;;8.30;99.90;;;;;;4991966;28;20042;-72
2021/12/18 13:07:55;;;;;;;2.63;1.30;;;8.50;99.90;;;;;;4989815;28;20022;-72
2021/12/18 13:10:28;;;;;;;1.43;0.97;;;8.40;99.90;;;;;;4992016;28;20732;-72
2021/12/18 13:12:55;;;;;;;2.47;1.00;;;8.50;99.90;;;;;;4996007;28;20014;-71
2021/12/18 13:15:21;;;;;;;1.57;1.00;;;8.40;99.90;;;;;;4992912;28;20507;-72
2021/12/18 13:17:47;;;;;;;1.93;1.27;;;8.50;99.90;;;;;;4991821;28;20045;-71
2021/12/18 13:20:14;;;;;;;1.30;0.90;;;;;;;;;;4992851;28;20034;-72
2021/12/18 13:22:50;;;;;;;0.80;0.73;;;8.70;99.90;;;;;;4992606;28;20031;-72
2021/12/18 13:25:16;;;;;;;1.40;1.10;;;8.70;99.90;;;;;;4993112;28;20506;-72
2021/12/18 13:28:00;;;;;;;2.97;0.97;;;8.70;99.90;;;;;;4993782;28;20018;-71
2021/12/18 13:30:26;;;;;;;1.43;0.90;;;;;;;;;;5011704;28;20026;-72
2021/12/18 13:33:02;;;;;;;1.53;0.80;;;8.40;99.90;;;;;;5002194;28;20101;-72
2021/12/18 13:35:33;;;;;;;1.60;1.00;;;8.50;99.90;;;;;;4993278;28;20018;-72
2021/12/18 13:37:59;;;;;;;1.30;0.83;;;8.40;99.90;;;;;;4990337;28;20054;-72
2021/12/18 13:40:27;;;;;;;2.10;1.23;;;8.30;99.90;;;;;;4992497;28;20026;-72
2021/12/18 13:43:08;;;;;;;1.60;1.00;;;8.30;99.90;;;;;;4992578;28;20029;-72
2021/12/18 13:45:50;;;;;;;1.97;1.47;;;8.30;99.90;;;;;;4992583;28;20034;-72
2021/12/18 13:48:17;;;;;;;2.70;1.60;;;8.40;99.90;;;;;;4995003;28;20072;-72
2021/12/18 13:50:43;;;;;;;2.77;1.40;;;8.40;99.90;;;;;;4992136;28;20061;-71
2021/12/18 13:53:09;;;;;;;3.30;2.23;;;;;;;;;;4992222;28;20023;-72
2021/12/18 13:55:43;;;;;;;2.93;1.67;;;8.30;99.90;;;;;;4991364;28;20029;-72
2021/12/18 13:58:32;;;;;;;3.33;1.77;;;8.30;99.90;;;;;;4990092;28;20492;-71
2021/12/18 14:01:12;;;;;;;2.90;1.70;;;8.20;99.90;;;;;;4992014;28;20061;-72
2021/12/18 14:03:48;;;;;;;2.83;1.50;;;8.30;99.90;;;;;;4990021;28;20510;-72
2021/12/18 14:06:20;;;;;;;4.20;2.33;;;8.30;99.90;;;;;;4988658;28;20041;-72
2021/12/18 14:09:08;;;;;;;5.43;2.10;;;8.20;99.90;;;;;;5003313;28;20113;-72